createdAt,value
2022-10-04T00:03:07.279Z,0
2022-10-04T00:08:30.138Z,0
2022-10-04T00:13:52.606Z,0
2022-10-04T00:19:15.209Z,0
2022-10-04T00:24:37.575Z,0
2022-10-04T00:30:00.107Z,0
2022-10-04T00:40:44.959Z,0
2022-10-04T00:46:07.852Z,0
2022-10-04T00:51:30.587Z,0
2022-10-04T00:56:52.854Z,0
2022-10-04T01:02:27.149Z,0
2022-10-04T01:07:50.044Z,0
2022-10-04T01:13:13.369Z,0
2022-10-04T01:18:38.956Z,0
2022-10-04T01:24:01.554Z,0
2022-10-04T01:29:44.744Z,0
2022-10-04T01:35:06.912Z,0
2022-10-04T01:40:29.283Z,0
2022-10-04T01:45:52.609Z,0
2022-10-04T01:51:15.231Z,0
2022-10-04T01:56:38.146Z,0
2022-10-04T02:02:01.129Z,0
2022-10-04T02:07:32.907Z,0
2022-10-04T02:12:55.218Z,0
2022-10-04T02:18:17.473Z,0
2022-10-04T02:23:40.023Z,0
2022-10-04T02:34:27.144Z,0
2022-10-04T02:40:11.041Z,0
2022-10-04T02:45:33.316Z,0
2022-10-04T02:50:55.620Z,0
2022-10-04T02:56:18.195Z,0
2022-10-04T03:01:41.124Z,0
2022-10-04T03:07:04.806Z,0
2022-10-04T03:12:27.616Z,0
2022-10-04T03:17:49.869Z,0
2022-10-04T03:23:12.255Z,0
2022-10-04T03:28:35.329Z,0
2022-10-04T03:33:58.068Z,0
2022-10-04T03:39:23.625Z,0
2022-10-04T03:44:46.662Z,0
2022-10-04T03:50:09.285Z,0
2022-10-04T03:55:33.664Z,0
2022-10-04T04:00:56.518Z,0
2022-10-04T04:06:19.330Z,0
2022-10-04T04:11:42.187Z,0
2022-10-04T04:17:05.234Z,0
2022-10-04T04:27:53.199Z,0
2022-10-04T04:33:22.912Z,0
2022-10-04T04:38:45.558Z,0
2022-10-04T04:44:08.006Z,0
2022-10-04T04:49:39.998Z,0
2022-10-04T04:55:02.453Z,0
2022-10-04T05:00:25.447Z,0
2022-10-04T05:05:48.047Z,0
2022-10-04T05:11:10.377Z,0
2022-10-04T05:16:33.210Z,0
2022-10-04T05:21:55.879Z,0
2022-10-04T05:27:18.510Z,0
2022-10-04T05:32:44.300Z,2
2022-10-04T05:43:36.506Z,14
2022-10-04T05:48:59.031Z,19.1
2022-10-04T05:54:21.710Z,21.8
2022-10-04T05:59:47.308Z,24.2
2022-10-04T06:05:09.769Z,31.4
2022-10-04T06:10:32.432Z,49.2
2022-10-04T06:21:19.504Z,69.4
2022-10-04T06:26:45.023Z,86.1
2022-10-04T06:32:07.455Z,106.7
2022-10-04T06:37:30.128Z,124.8
2022-10-04T06:42:55.556Z,156.7
2022-10-04T06:48:18.337Z,182
2022-10-04T06:53:40.881Z,153.8
2022-10-04T06:59:06.302Z,160
2022-10-04T07:05:07.352Z,132.5
2022-10-04T07:10:34.384Z,172.7
2022-10-04T07:16:02.763Z,206.2
2022-10-04T07:21:25.652Z,211.1
2022-10-04T07:26:48.429Z,407
2022-10-04T07:32:11.188Z,243.9
2022-10-04T07:37:34.376Z,311.2
2022-10-04T07:43:00.396Z,420.3
2022-10-04T07:48:23.339Z,407.1
2022-10-04T07:53:49.139Z,421.9
2022-10-04T07:59:12.060Z,430.6
2022-10-04T08:04:34.389Z,275.8
2022-10-04T08:09:56.700Z,296.1
2022-10-04T08:20:45.749Z,1294.6
2022-10-04T08:26:09.469Z,1296
2022-10-04T08:31:32.513Z,750.7
2022-10-04T08:36:56.237Z,1332
2022-10-04T08:42:19.579Z,1449.9
2022-10-04T08:47:46.210Z,1427
2022-10-04T08:53:12.110Z,1201.8
2022-10-04T08:58:35.062Z,711
2022-10-04T09:03:57.984Z,749.2
2022-10-04T09:09:20.930Z,1221
2022-10-04T09:14:43.766Z,1433.1
2022-10-04T09:20:38.555Z,1559.8
2022-10-04T09:26:02.955Z,1710.7
2022-10-04T09:31:25.969Z,1755.8
2022-10-04T09:36:51.698Z,1686.8
2022-10-04T09:42:14.693Z,1525.9
2022-10-04T09:47:38.497Z,1778.4
2022-10-04T09:53:01.058Z,1706.6
2022-10-04T09:58:24.778Z,1676.8
2022-10-04T10:03:47.484Z,1763.9
2022-10-04T10:09:13.014Z,1654.8
2022-10-04T10:14:38.498Z,1873.2
2022-10-04T10:20:12.644Z,1868.1
2022-10-04T10:31:01.394Z,1764.8
2022-10-04T10:36:27.107Z,1777.6
2022-10-04T10:41:49.948Z,2089.9
2022-10-04T10:47:12.919Z,2088.4
2022-10-04T10:52:44.479Z,1411.9
2022-10-04T11:03:35.370Z,1709
2022-10-04T11:09:02.414Z,1746.3
2022-10-04T11:14:25.747Z,1851.4
2022-10-04T11:19:48.902Z,1922.2
2022-10-04T11:25:11.396Z,1999.5
2022-10-04T11:30:37.167Z,1482.3
2022-10-04T11:35:59.282Z,2016.4
2022-10-04T11:41:21.077Z,879.1
2022-10-04T11:46:47.068Z,1964
2022-10-04T11:52:13.933Z,2062.4
2022-10-04T11:57:38.929Z,1667.8
2022-10-04T12:08:24.134Z,2076.1
2022-10-04T12:13:47.116Z,1773.5
2022-10-04T12:19:11.983Z,1948.3
2022-10-04T12:24:34.538Z,1942.5
2022-10-04T12:29:56.988Z,2227.1
2022-10-04T12:35:22.873Z,1580.9
2022-10-04T12:40:45.603Z,1875.1
2022-10-04T12:46:08.434Z,1499.9
2022-10-04T12:51:48.507Z,1362
2022-10-04T12:57:11.695Z,1489.5
2022-10-04T13:02:34.535Z,1452.3
2022-10-04T13:07:57.405Z,1566
2022-10-04T13:13:30.544Z,1349.2
2022-10-04T13:18:55.757Z,1306.1
2022-10-04T13:24:18.320Z,1328.3
2022-10-04T13:29:50.657Z,1196.2
2022-10-04T13:35:21.337Z,1388
2022-10-04T13:46:07.206Z,1263.3
2022-10-04T13:51:33.334Z,1339.2
2022-10-04T13:56:55.878Z,1488
2022-10-04T14:02:18.788Z,1102.2
2022-10-04T14:13:14.320Z,1169.9
2022-10-04T14:18:36.772Z,1146.6
2022-10-04T14:23:59.132Z,1217.5
2022-10-04T14:29:21.495Z,1294.1
2022-10-04T14:34:44.126Z,1051.7
2022-10-04T14:40:05.725Z,957.7
2022-10-04T14:45:28.352Z,840.9
2022-10-04T14:50:54.309Z,692.2
2022-10-04T14:56:18.652Z,280.7
2022-10-04T15:07:02.193Z,138.1
2022-10-04T15:13:09.732Z,138.4
2022-10-04T15:18:34.682Z,161.8
2022-10-04T15:23:59.942Z,172
2022-10-04T15:29:23.249Z,171.3
2022-10-04T15:34:45.855Z,167.7
2022-10-04T15:40:08.085Z,129.7
2022-10-04T15:45:33.085Z,123.9
2022-10-04T15:50:55.856Z,112.5
2022-10-04T15:56:18.257Z,103
2022-10-04T16:01:40.948Z,89.3
2022-10-04T16:07:06.352Z,70.6
2022-10-04T16:12:32.096Z,56.5
2022-10-04T16:17:54.472Z,43.8
2022-10-04T16:23:16.945Z,39.7
2022-10-04T16:28:39.813Z,36
2022-10-04T16:34:02.745Z,32.4
2022-10-04T16:39:25.424Z,28.6
2022-10-04T16:45:05.540Z,22.9
2022-10-04T16:50:27.997Z,23.6
2022-10-04T16:55:50.151Z,21.7
2022-10-04T17:06:37.841Z,8
2022-10-04T17:12:00.308Z,4
2022-10-04T17:17:22.687Z,0
2022-10-04T17:22:45.331Z,0
2022-10-04T17:28:08.073Z,0
2022-10-04T17:33:30.991Z,0
2022-10-04T17:38:53.421Z,0
2022-10-04T17:44:16.316Z,0
2022-10-04T17:49:40.823Z,0
2022-10-04T17:55:04.969Z,0
2022-10-04T18:00:27.397Z,0
2022-10-04T18:05:50.031Z,0
2022-10-04T18:11:12.587Z,0
2022-10-04T18:16:42.627Z,0
2022-10-04T18:22:06.058Z,0
2022-10-04T18:27:28.478Z,0
2022-10-04T18:32:51.083Z,0
2022-10-04T18:38:13.347Z,0
2022-10-04T18:54:35.970Z,0
2022-10-04T18:59:58.439Z,0
2022-10-04T19:05:20.980Z,0
2022-10-04T19:10:43.388Z,0
2022-10-04T19:16:06.211Z,0
2022-10-04T19:21:29.272Z,0
2022-10-04T19:26:52.422Z,0
2022-10-04T19:32:15.831Z,0
2022-10-04T19:37:38.488Z,0
2022-10-04T19:43:01.171Z,0
2022-10-04T19:48:24.982Z,0
2022-10-04T19:53:47.281Z,0
2022-10-04T19:59:12.931Z,0
2022-10-04T20:04:37.203Z,0
2022-10-04T20:09:59.964Z,0
2022-10-04T20:15:27.867Z,0
2022-10-04T20:20:50.548Z,0
2022-10-04T20:26:14.750Z,0
2022-10-04T20:42:26.563Z,0
2022-10-04T20:47:49.065Z,0
2022-10-04T20:53:11.454Z,0
2022-10-04T20:58:33.920Z,0
2022-10-04T21:03:57.096Z,0
2022-10-04T21:09:19.598Z,0
2022-10-04T21:14:42.058Z,0
2022-10-04T21:20:04.626Z,0
2022-10-04T21:25:27.370Z,0
2022-10-04T21:30:49.870Z,0
2022-10-04T21:36:15.490Z,0
2022-10-04T21:41:40.278Z,0
2022-10-04T21:47:02.436Z,0
2022-10-04T21:52:25.143Z,0
2022-10-04T21:57:47.978Z,0
2022-10-04T22:03:10.846Z,0
2022-10-04T22:08:33.229Z,0
2022-10-04T22:14:13.474Z,0
2022-10-04T22:19:35.962Z,0
2022-10-04T22:30:21.221Z,0
2022-10-04T22:35:43.617Z,0
2022-10-04T22:41:06.281Z,0
2022-10-04T22:46:28.891Z,0
2022-10-04T22:51:57.503Z,0
2022-10-04T22:57:20.066Z,0
2022-10-04T23:02:42.538Z,0
2022-10-04T23:08:07.777Z,0
2022-10-04T23:13:31.512Z,0
2022-10-04T23:18:53.988Z,0
2022-10-04T23:24:16.330Z,0
2022-10-04T23:29:38.508Z,0
2022-10-04T23:35:01.082Z,0
2022-10-04T23:40:23.663Z,0
2022-10-04T23:45:46.065Z,0
2022-10-04T23:51:08.599Z,0
2022-10-04T23:56:32.305Z,0
